sensor_id;sensor_type;location;lat;lon;timestamp;P1;durP1;ratioP1;P2;durP2;ratioP2
9324;SDS011;4701;51.566;6.776;2022-12-01T06:01:31;26.33;;;14.90;;
9324;SDS011;4701;51.566;6.776;2022-12-01T06:03:33;24.30;;;13.90;;
9324;SDS011;4701;51.566;6.776;2022-12-01T06:05:35;19.60;;;12.70;;
9324;SDS011;4701;51.566;6.776;2022-12-01T06:07:37;19.13;;;12.67;;
9324;SDS011;4701;51.566;6.776;2022-12-01T06:09:39;19.90;;;12.47;;
9324;SDS011;4701;51.566;6.776;2022-12-01T06:11:41;17.40;;;11.90;;
9324;SDS011;4701;51.566;6.776;2022-12-01T06:13:43;18.40;;;11.93;;
9324;SDS011;4701;51.566;6.776;2022-12-01T06:15:44;19.40;;;12.90;;
9324;SDS011;4701;51.566;6.776;2022-12-01T06:17:48;18.53;;;11.70;;
9324;SDS011;4701;51.566;6.776;2022-12-01T06:19:55;20.03;;;11.33;;
9324;SDS011;4701;51.566;6.776;2022-12-01T06:21:57;17.80;;;11.20;;
9324;SDS011;4701;51.566;6.776;2022-12-01T06:23:58;15.13;;;10.40;;
9324;SDS011;4701;51.566;6.776;2022-12-01T06:26:00;18.67;;;11.07;;
9324;SDS011;4701;51.566;6.776;2022-12-01T06:28:02;18.33;;;11.87;;
9324;SDS011;4701;51.566;6.776;2022-12-01T06:30:04;17.27;;;11.50;;
9324;SDS011;4701;51.566;6.776;2022-12-01T06:32:07;18.90;;;11.70;;
9324;SDS011;4701;51.566;6.776;2022-12-01T06:34:10;16.93;;;11.33;;
9324;SDS011;4701;51.566;6.776;2022-12-01T06:36:12;17.33;;;11.77;;
9324;SDS011;4701;51.566;6.776;2022-12-01T06:38:14;16.03;;;11.47;;
9324;SDS011;4701;51.566;6.776;2022-12-01T06:40:16;19.30;;;11.83;;
9324;SDS011;4701;51.566;6.776;2022-12-01T06:42:17;20.00;;;11.57;;
9324;SDS011;4701;51.566;6.776;2022-12-01T06:44:19;19.97;;;12.17;;
9324;SDS011;4701;51.566;6.776;2022-12-01T06:46:21;18.23;;;11.30;;
9324;SDS011;4701;51.566;6.776;2022-12-01T06:48:23;15.90;;;11.37;;
9324;SDS011;4701;51.566;6.776;2022-12-01T06:50:26;16.00;;;11.37;;
9324;SDS011;4701;51.566;6.776;2022-12-01T06:52:28;17.57;;;11.97;;
9324;SDS011;4701;51.566;6.776;2022-12-01T06:54:29;16.87;;;11.77;;
9324;SDS011;4701;51.566;6.776;2022-12-01T06:56:31;16.67;;;12.03;;
9324;SDS011;4701;51.566;6.776;2022-12-01T06:58:33;16.67;;;10.40;;
9324;SDS011;4701;51.566;6.776;2022-12-01T07:00:34;16.07;;;10.30;;
9324;SDS011;4701;51.566;6.776;2022-12-01T07:02:42;23.03;;;11.37;;
9324;SDS011;4701;51.566;6.776;2022-12-01T07:04:44;19.47;;;11.67;;
9324;SDS011;4701;51.566;6.776;2022-12-01T07:06:47;26.23;;;13.03;;
9324;SDS011;4701;51.566;6.776;2022-12-01T07:08:49;24.50;;;12.37;;
9324;SDS011;4701;51.566;6.776;2022-12-01T07:10:55;22.00;;;13.40;;
9324;SDS011;4701;51.566;6.776;2022-12-01T07:12:57;20.80;;;12.57;;
9324;SDS011;4701;51.566;6.776;2022-12-01T07:14:59;23.00;;;13.27;;
9324;SDS011;4701;51.566;6.776;2022-12-01T07:17:01;23.33;;;12.80;;
9324;SDS011;4701;51.566;6.776;2022-12-01T07:19:03;27.37;;;14.90;;
9324;SDS011;4701;51.566;6.776;2022-12-01T07:21:05;39.37;;;15.37;;
9324;SDS011;4701;51.566;6.776;2022-12-01T07:23:10;42.53;;;16.27;;
9324;SDS011;4701;51.566;6.776;2022-12-01T07:25:12;31.97;;;15.83;;
9324;SDS011;4701;51.566;6.776;2022-12-01T07:27:14;29.37;;;15.30;;
9324;SDS011;4701;51.566;6.776;2022-12-01T07:29:16;30.73;;;15.70;;
9324;SDS011;4701;51.566;6.776;2022-12-01T07:31:18;28.70;;;14.50;;
9324;SDS011;4701;51.566;6.776;2022-12-01T07:33:20;34.77;;;16.13;;
9324;SDS011;4701;51.566;6.776;2022-12-01T07:35:22;32.27;;;16.17;;
9324;SDS011;4701;51.566;6.776;2022-12-01T07:37:24;25.67;;;14.40;;
9324;SDS011;4701;51.566;6.776;2022-12-01T07:39:29;27.40;;;15.10;;
9324;SDS011;4701;51.566;6.776;2022-12-01T07:41:30;29.20;;;14.97;;
9324;SDS011;4701;51.566;6.776;2022-12-01T07:43:35;27.33;;;15.97;;
9324;SDS011;4701;51.566;6.776;2022-12-01T07:45:45;24.87;;;14.60;;
9324;SDS011;4701;51.566;6.776;2022-12-01T07:47:46;25.70;;;15.77;;
9324;SDS011;4701;51.566;6.776;2022-12-01T07:49:48;24.77;;;16.30;;
9324;SDS011;4701;51.566;6.776;2022-12-01T07:51:50;26.27;;;15.77;;
9324;SDS011;4701;51.566;6.776;2022-12-01T07:53:52;26.47;;;15.53;;
9324;SDS011;4701;51.566;6.776;2022-12-01T07:55:56;29.20;;;15.23;;
9324;SDS011;4701;51.566;6.776;2022-12-01T07:57:58;27.13;;;16.70;;
9324;SDS011;4701;51.566;6.776;2022-12-01T08:00:01;25.07;;;14.60;;
9324;SDS011;4701;51.566;6.776;2022-12-01T08:02:04;24.77;;;15.33;;
9324;SDS011;4701;51.566;6.776;2022-12-01T08:04:06;26.63;;;16.30;;
9324;SDS011;4701;51.566;6.776;2022-12-01T08:06:08;26.60;;;15.77;;
9324;SDS011;4701;51.566;6.776;2022-12-01T08:08:10;24.23;;;16.17;;
9324;SDS011;4701;51.566;6.776;2022-12-01T08:10:12;29.73;;;15.63;;
9324;SDS011;4701;51.566;6.776;2022-12-01T08:12:15;24.93;;;15.90;;
9324;SDS011;4701;51.566;6.776;2022-12-01T08:14:17;26.97;;;16.63;;
9324;SDS011;4701;51.566;6.776;2022-12-01T08:16:20;25.27;;;14.50;;
9324;SDS011;4701;51.566;6.776;2022-12-01T08:18:22;22.60;;;15.40;;
9324;SDS011;4701;51.566;6.776;2022-12-01T08:20:24;33.83;;;19.87;;
9324;SDS011;4701;51.566;6.776;2022-12-01T08:22:26;29.47;;;17.73;;
9324;SDS011;4701;51.566;6.776;2022-12-01T08:24:28;27.67;;;17.73;;
9324;SDS011;4701;51.566;6.776;2022-12-01T08:26:30;27.43;;;17.27;;
9324;SDS011;4701;51.566;6.776;2022-12-01T08:28:35;26.80;;;15.90;;
9324;SDS011;4701;51.566;6.776;2022-12-01T08:30:37;28.60;;;16.50;;
9324;SDS011;4701;51.566;6.776;2022-12-01T08:32:38;28.00;;;17.40;;
9324;SDS011;4701;51.566;6.776;2022-12-01T08:34:40;31.60;;;17.10;;
9324;SDS011;4701;51.566;6.776;2022-12-01T08:36:42;31.03;;;18.13;;
9324;SDS011;4701;51.566;6.776;2022-12-01T08:38:44;28.13;;;17.20;;
9324;SDS011;4701;51.566;6.776;2022-12-01T08:40:46;25.30;;;16.30;;
9324;SDS011;4701;51.566;6.776;2022-12-01T08:42:48;24.50;;;16.33;;
9324;SDS011;4701;51.566;6.776;2022-12-01T08:44:53;25.27;;;16.23;;
9324;SDS011;4701;51.566;6.776;2022-12-01T08:46:58;26.43;;;16.70;;
9324;SDS011;4701;51.566;6.776;2022-12-01T08:49:00;26.47;;;16.20;;
9324;SDS011;4701;51.566;6.776;2022-12-01T08:51:03;25.57;;;16.47;;
9324;SDS011;4701;51.566;6.776;2022-12-01T08:53:06;26.43;;;16.03;;
9324;SDS011;4701;51.566;6.776;2022-12-01T08:55:08;27.30;;;16.70;;
9324;SDS011;4701;51.566;6.776;2022-12-01T08:57:12;29.23;;;16.63;;
9324;SDS011;4701;51.566;6.776;2022-12-01T08:59:14;25.97;;;16.80;;
9324;SDS011;4701;51.566;6.776;2022-12-01T09:01:17;27.37;;;17.07;;
9324;SDS011;4701;51.566;6.776;2022-12-01T09:03:20;30.33;;;17.30;;
9324;SDS011;4701;51.566;6.776;2022-12-01T09:05:24;25.73;;;16.47;;
9324;SDS011;4701;51.566;6.776;2022-12-01T09:07:28;28.40;;;17.37;;
9324;SDS011;4701;51.566;6.776;2022-12-01T09:09:30;29.63;;;17.30;;
9324;SDS011;4701;51.566;6.776;2022-12-01T09:11:32;26.07;;;17.57;;
9324;SDS011;4701;51.566;6.776;2022-12-01T09:13:35;28.27;;;16.53;;
9324;SDS011;4701;51.566;6.776;2022-12-01T09:15:38;30.77;;;17.43;;
9324;SDS011;4701;51.566;6.776;2022-12-01T09:17:41;28.10;;;16.97;;
9324;SDS011;4701;51.566;6.776;2022-12-01T09:19:43;25.50;;;16.47;;
9324;SDS011;4701;51.566;6.776;2022-12-01T09:21:45;24.60;;;16.87;;
9324;SDS011;4701;51.566;6.776;2022-12-01T09:23:47;26.00;;;17.07;;
9324;SDS011;4701;51.566;6.776;2022-12-01T09:25:49;25.60;;;15.50;;
9324;SDS011;4701;51.566;6.776;2022-12-01T09:27:52;24.43;;;15.07;;
9324;SDS011;4701;51.566;6.776;2022-12-01T09:29:53;27.00;;;16.40;;
9324;SDS011;4701;51.566;6.776;2022-12-01T09:31:55;27.27;;;16.23;;
9324;SDS011;4701;51.566;6.776;2022-12-01T09:34:00;25.40;;;17.40;;
9324;SDS011;4701;51.566;6.776;2022-12-01T09:36:07;26.90;;;17.03;;
9324;SDS011;4701;51.566;6.776;2022-12-01T09:38:10;23.47;;;15.60;;
9324;SDS011;4701;51.566;6.776;2022-12-01T09:40:12;24.87;;;16.50;;
9324;SDS011;4701;51.566;6.776;2022-12-01T09:42:15;28.40;;;16.13;;
9324;SDS011;4701;51.566;6.776;2022-12-01T09:46:28;38.33;;;23.07;;
9324;SDS011;4701;51.566;6.776;2022-12-01T09:48:35;37.50;;;23.20;;
9324;SDS011;4701;51.566;6.776;2022-12-01T09:50:46;36.97;;;21.70;;
9324;SDS011;4701;51.566;6.776;2022-12-01T09:52:47;42.20;;;23.30;;
9324;SDS011;4701;51.566;6.776;2022-12-01T09:54:51;49.13;;;24.57;;
9324;SDS011;4701;51.566;6.776;2022-12-01T09:56:56;47.93;;;24.43;;
9324;SDS011;4701;51.566;6.776;2022-12-01T09:59:00;42.17;;;22.60;;
9324;SDS011;4701;51.566;6.776;2022-12-01T10:01:08;45.33;;;23.67;;
9324;SDS011;4701;51.566;6.776;2022-12-01T10:03:22;41.33;;;22.97;;
9324;SDS011;4701;51.566;6.776;2022-12-01T10:05:30;43.80;;;23.07;;
9324;SDS011;4701;51.566;6.776;2022-12-01T10:07:42;48.37;;;23.70;;
9324;SDS011;4701;51.566;6.776;2022-12-01T10:09:48;46.67;;;23.53;;
9324;SDS011;4701;51.566;6.776;2022-12-01T10:11:56;52.00;;;24.43;;
9324;SDS011;4701;51.566;6.776;2022-12-01T10:14:02;49.33;;;23.10;;
9324;SDS011;4701;51.566;6.776;2022-12-01T10:16:07;48.10;;;22.93;;
9324;SDS011;4701;51.566;6.776;2022-12-01T10:18:15;51.27;;;23.07;;
9324;SDS011;4701;51.566;6.776;2022-12-01T10:20:33;41.93;;;22.67;;
9324;SDS011;4701;51.566;6.776;2022-12-01T10:22:44;46.83;;;23.33;;
9324;SDS011;4701;51.566;6.776;2022-12-01T10:25:02;41.80;;;21.00;;
9324;SDS011;4701;51.566;6.776;2022-12-01T10:27:18;47.00;;;22.87;;
9324;SDS011;4701;51.566;6.776;2022-12-01T10:29:34;47.97;;;23.37;;
9324;SDS011;4701;51.566;6.776;2022-12-01T10:31:48;47.50;;;24.37;;
9324;SDS011;4701;51.566;6.776;2022-12-01T10:33:58;43.97;;;22.20;;
9324;SDS011;4701;51.566;6.776;2022-12-01T10:36:01;45.40;;;22.97;;
9324;SDS011;4701;51.566;6.776;2022-12-01T10:38:04;48.03;;;22.63;;
9324;SDS011;4701;51.566;6.776;2022-12-01T10:40:13;48.93;;;23.80;;
9324;SDS011;4701;51.566;6.776;2022-12-01T10:42:18;50.43;;;23.33;;
9324;SDS011;4701;51.566;6.776;2022-12-01T10:44:27;45.27;;;22.23;;
9324;SDS011;4701;51.566;6.776;2022-12-01T10:46:32;49.50;;;22.27;;
9324;SDS011;4701;51.566;6.776;2022-12-01T10:48:50;51.53;;;22.63;;
9324;SDS011;4701;51.566;6.776;2022-12-01T10:50:55;43.13;;;22.30;;
9324;SDS011;4701;51.566;6.776;2022-12-01T10:55:37;51.57;;;25.23;;
9324;SDS011;4701;51.566;6.776;2022-12-01T10:57:40;47.50;;;22.53;;
9324;SDS011;4701;51.566;6.776;2022-12-01T10:59:47;47.43;;;24.07;;
9324;SDS011;4701;51.566;6.776;2022-12-01T11:01:51;45.57;;;24.03;;
9324;SDS011;4701;51.566;6.776;2022-12-01T11:03:53;49.37;;;24.37;;
9324;SDS011;4701;51.566;6.776;2022-12-01T11:06:02;49.30;;;24.47;;
9324;SDS011;4701;51.566;6.776;2022-12-01T11:08:18;46.97;;;23.63;;
9324;SDS011;4701;51.566;6.776;2022-12-01T11:10:26;52.63;;;24.53;;
9324;SDS011;4701;51.566;6.776;2022-12-01T11:12:29;50.13;;;25.70;;
9324;SDS011;4701;51.566;6.776;2022-12-01T11:14:35;56.13;;;24.43;;
9324;SDS011;4701;51.566;6.776;2022-12-01T11:16:44;56.23;;;25.67;;
9324;SDS011;4701;51.566;6.776;2022-12-01T11:18:46;52.77;;;24.83;;
9324;SDS011;4701;51.566;6.776;2022-12-01T11:20:48;51.20;;;25.50;;
9324;SDS011;4701;51.566;6.776;2022-12-01T11:23:21;53.03;;;24.00;;
9324;SDS011;4701;51.566;6.776;2022-12-01T11:25:26;56.07;;;23.93;;
9324;SDS011;4701;51.566;6.776;2022-12-01T11:27:30;53.33;;;24.97;;
9324;SDS011;4701;51.566;6.776;2022-12-01T11:29:34;52.63;;;25.07;;
9324;SDS011;4701;51.566;6.776;2022-12-01T11:31:42;53.47;;;25.50;;
9324;SDS011;4701;51.566;6.776;2022-12-01T11:33:47;50.97;;;24.53;;
9324;SDS011;4701;51.566;6.776;2022-12-01T11:35:51;45.63;;;24.73;;
9324;SDS011;4701;51.566;6.776;2022-12-01T11:37:54;50.13;;;23.67;;
9324;SDS011;4701;51.566;6.776;2022-12-01T11:40:05;53.27;;;24.60;;
9324;SDS011;4701;51.566;6.776;2022-12-01T11:42:16;47.53;;;23.80;;
9324;SDS011;4701;51.566;6.776;2022-12-01T11:44:22;52.97;;;25.93;;
9324;SDS011;4701;51.566;6.776;2022-12-01T11:46:27;50.07;;;25.57;;
9324;SDS011;4701;51.566;6.776;2022-12-01T11:48:33;53.50;;;24.93;;
9324;SDS011;4701;51.566;6.776;2022-12-01T11:50:37;54.93;;;25.13;;
9324;SDS011;4701;51.566;6.776;2022-12-01T11:54:17;46.77;;;23.77;;
9324;SDS011;4701;51.566;6.776;2022-12-01T11:56:21;47.47;;;23.67;;
9324;SDS011;4701;51.566;6.776;2022-12-01T11:58:27;48.73;;;24.70;;
9324;SDS011;4701;51.566;6.776;2022-12-01T12:00:40;48.77;;;23.50;;
9324;SDS011;4701;51.566;6.776;2022-12-01T12:02:51;47.50;;;22.97;;
9324;SDS011;4701;51.566;6.776;2022-12-01T12:05:08;43.83;;;23.73;;
9324;SDS011;4701;51.566;6.776;2022-12-01T12:07:41;47.40;;;23.27;;
9324;SDS011;4701;51.566;6.776;2022-12-01T12:10:01;44.73;;;23.43;;
9324;SDS011;4701;51.566;6.776;2022-12-01T12:12:25;46.27;;;23.10;;
9324;SDS011;4701;51.566;6.776;2022-12-01T12:14:43;46.83;;;23.57;;
9324;SDS011;4701;51.566;6.776;2022-12-01T12:17:10;55.60;;;25.17;;
9324;SDS011;4701;51.566;6.776;2022-12-01T12:19:28;50.03;;;23.20;;
9324;SDS011;4701;51.566;6.776;2022-12-01T12:21:47;50.13;;;24.10;;
9324;SDS011;4701;51.566;6.776;2022-12-01T12:24:09;47.17;;;24.23;;
9324;SDS011;4701;51.566;6.776;2022-12-01T12:26:24;47.87;;;24.40;;
9324;SDS011;4701;51.566;6.776;2022-12-01T12:28:36;53.27;;;24.87;;
9324;SDS011;4701;51.566;6.776;2022-12-01T12:30:59;48.37;;;25.10;;
9324;SDS011;4701;51.566;6.776;2022-12-01T12:35:38;50.43;;;25.80;;
9324;SDS011;4701;51.566;6.776;2022-12-01T12:37:46;48.87;;;26.10;;
9324;SDS011;4701;51.566;6.776;2022-12-01T12:40:01;53.30;;;25.97;;
9324;SDS011;4701;51.566;6.776;2022-12-01T12:42:21;43.20;;;23.90;;
9324;SDS011;4701;51.566;6.776;2022-12-01T12:44:41;46.80;;;25.20;;
9324;SDS011;4701;51.566;6.776;2022-12-01T12:46:48;45.27;;;25.00;;
9324;SDS011;4701;51.566;6.776;2022-12-01T12:49:21;51.27;;;26.13;;
9324;SDS011;4701;51.566;6.776;2022-12-01T12:51:36;52.30;;;24.93;;
9324;SDS011;4701;51.566;6.776;2022-12-01T12:53:43;52.47;;;27.83;;
9324;SDS011;4701;51.566;6.776;2022-12-01T12:55:51;49.10;;;25.60;;
9324;SDS011;4701;51.566;6.776;2022-12-01T12:58:02;51.77;;;27.47;;
9324;SDS011;4701;51.566;6.776;2022-12-01T13:00:12;50.30;;;28.20;;
9324;SDS011;4701;51.566;6.776;2022-12-01T13:02:19;51.97;;;27.70;;
9324;SDS011;4701;51.566;6.776;2022-12-01T13:04:26;53.57;;;27.17;;
9324;SDS011;4701;51.566;6.776;2022-12-01T13:06:36;55.63;;;29.43;;
9324;SDS011;4701;51.566;6.776;2022-12-01T13:08:44;56.30;;;28.27;;
9324;SDS011;4701;51.566;6.776;2022-12-01T13:10:49;57.73;;;28.13;;
9324;SDS011;4701;51.566;6.776;2022-12-01T13:12:58;60.30;;;30.20;;
9324;SDS011;4701;51.566;6.776;2022-12-01T13:15:12;52.10;;;27.93;;
9324;SDS011;4701;51.566;6.776;2022-12-01T13:17:17;53.70;;;29.30;;
9324;SDS011;4701;51.566;6.776;2022-12-01T13:19:24;54.23;;;29.43;;
9324;SDS011;4701;51.566;6.776;2022-12-01T13:21:31;59.33;;;30.40;;
9324;SDS011;4701;51.566;6.776;2022-12-01T13:23:36;56.17;;;30.07;;
9324;SDS011;4701;51.566;6.776;2022-12-01T13:25:39;58.27;;;30.10;;
9324;SDS011;4701;51.566;6.776;2022-12-01T13:27:43;61.10;;;31.20;;
9324;SDS011;4701;51.566;6.776;2022-12-01T13:29:48;58.63;;;29.80;;
9324;SDS011;4701;51.566;6.776;2022-12-01T13:31:52;57.93;;;31.00;;
9324;SDS011;4701;51.566;6.776;2022-12-01T13:33:56;57.37;;;30.30;;
9324;SDS011;4701;51.566;6.776;2022-12-01T13:36:00;58.77;;;31.63;;
9324;SDS011;4701;51.566;6.776;2022-12-01T13:38:17;53.73;;;29.70;;
9324;SDS011;4701;51.566;6.776;2022-12-01T13:40:22;58.93;;;31.43;;
9324;SDS011;4701;51.566;6.776;2022-12-01T13:42:26;56.90;;;30.63;;
9324;SDS011;4701;51.566;6.776;2022-12-01T13:44:33;60.60;;;30.57;;
9324;SDS011;4701;51.566;6.776;2022-12-01T13:46:50;55.13;;;29.80;;
9324;SDS011;4701;51.566;6.776;2022-12-01T13:48:59;62.67;;;31.73;;
9324;SDS011;4701;51.566;6.776;2022-12-01T13:51:02;60.43;;;31.93;;
9324;SDS011;4701;51.566;6.776;2022-12-01T13:53:08;66.00;;;32.87;;
9324;SDS011;4701;51.566;6.776;2022-12-01T13:55:23;61.13;;;33.60;;
9324;SDS011;4701;51.566;6.776;2022-12-01T13:57:29;64.20;;;31.93;;
9324;SDS011;4701;51.566;6.776;2022-12-01T13:59:39;61.83;;;33.03;;
9324;SDS011;4701;51.566;6.776;2022-12-01T14:02:15;66.57;;;32.10;;
9324;SDS011;4701;51.566;6.776;2022-12-01T14:04:28;55.70;;;31.57;;
9324;SDS011;4701;51.566;6.776;2022-12-01T14:06:35;59.33;;;33.73;;
9324;SDS011;4701;51.566;6.776;2022-12-01T14:08:45;61.67;;;32.27;;
9324;SDS011;4701;51.566;6.776;2022-12-01T14:10:53;60.87;;;34.53;;
9324;SDS011;4701;51.566;6.776;2022-12-01T14:12:58;62.10;;;34.23;;
9324;SDS011;4701;51.566;6.776;2022-12-01T14:15:04;58.87;;;33.27;;
9324;SDS011;4701;51.566;6.776;2022-12-01T14:17:26;64.93;;;33.03;;
9324;SDS011;4701;51.566;6.776;2022-12-01T14:19:31;56.33;;;31.17;;
9324;SDS011;4701;51.566;6.776;2022-12-01T14:21:40;58.60;;;34.67;;
9324;SDS011;4701;51.566;6.776;2022-12-01T14:23:57;59.97;;;33.67;;
9324;SDS011;4701;51.566;6.776;2022-12-01T14:26:09;66.17;;;33.77;;
9324;SDS011;4701;51.566;6.776;2022-12-01T14:28:14;60.13;;;34.10;;
9324;SDS011;4701;51.566;6.776;2022-12-01T14:35:33;64.70;;;34.37;;
9324;SDS011;4701;51.566;6.776;2022-12-01T14:37:38;68.30;;;37.13;;
9324;SDS011;4701;51.566;6.776;2022-12-01T14:39:44;63.33;;;35.60;;
9324;SDS011;4701;51.566;6.776;2022-12-01T14:41:51;65.93;;;36.13;;
9324;SDS011;4701;51.566;6.776;2022-12-01T14:43:58;68.63;;;37.63;;
9324;SDS011;4701;51.566;6.776;2022-12-01T14:46:05;61.17;;;35.23;;
9324;SDS011;4701;51.566;6.776;2022-12-01T14:48:09;63.73;;;34.90;;
9324;SDS011;4701;51.566;6.776;2022-12-01T14:50:15;71.83;;;36.63;;
9324;SDS011;4701;51.566;6.776;2022-12-01T14:52:26;61.93;;;35.10;;
9324;SDS011;4701;51.566;6.776;2022-12-01T14:54:33;67.37;;;38.27;;
9324;SDS011;4701;51.566;6.776;2022-12-01T14:56:43;66.90;;;36.70;;
9324;SDS011;4701;51.566;6.776;2022-12-01T14:58:51;66.67;;;34.87;;
9324;SDS011;4701;51.566;6.776;2022-12-01T15:00:56;69.47;;;38.50;;
9324;SDS011;4701;51.566;6.776;2022-12-01T15:03:04;73.90;;;40.63;;
9324;SDS011;4701;51.566;6.776;2022-12-01T15:05:09;69.87;;;38.60;;
9324;SDS011;4701;51.566;6.776;2022-12-01T15:07:14;71.80;;;40.40;;
9324;SDS011;4701;51.566;6.776;2022-12-01T15:09:22;65.40;;;38.40;;
9324;SDS011;4701;51.566;6.776;2022-12-01T15:11:26;63.80;;;36.63;;
9324;SDS011;4701;51.566;6.776;2022-12-01T15:13:29;66.00;;;37.30;;
9324;SDS011;4701;51.566;6.776;2022-12-01T15:15:33;69.00;;;37.97;;
9324;SDS011;4701;51.566;6.776;2022-12-01T15:17:36;71.13;;;39.00;;
9324;SDS011;4701;51.566;6.776;2022-12-01T15:19:39;70.90;;;38.33;;
9324;SDS011;4701;51.566;6.776;2022-12-01T15:21:43;73.80;;;38.30;;
9324;SDS011;4701;51.566;6.776;2022-12-01T15:23:52;67.13;;;37.67;;
9324;SDS011;4701;51.566;6.776;2022-12-01T15:25:59;73.23;;;39.03;;
9324;SDS011;4701;51.566;6.776;2022-12-01T15:28:02;74.57;;;39.67;;
9324;SDS011;4701;51.566;6.776;2022-12-01T15:30:12;69.43;;;39.13;;
9324;SDS011;4701;51.566;6.776;2022-12-01T15:32:15;70.80;;;38.60;;
9324;SDS011;4701;51.566;6.776;2022-12-01T15:34:18;75.20;;;38.77;;
9324;SDS011;4701;51.566;6.776;2022-12-01T15:36:24;75.77;;;38.53;;
9324;SDS011;4701;51.566;6.776;2022-12-01T15:38:27;73.53;;;39.07;;
9324;SDS011;4701;51.566;6.776;2022-12-01T15:40:32;73.10;;;38.47;;
9324;SDS011;4701;51.566;6.776;2022-12-01T15:42:35;72.13;;;37.87;;
9324;SDS011;4701;51.566;6.776;2022-12-01T15:44:38;73.83;;;38.03;;
9324;SDS011;4701;51.566;6.776;2022-12-01T15:46:40;72.47;;;40.50;;
9324;SDS011;4701;51.566;6.776;2022-12-01T15:48:43;76.33;;;39.97;;
9324;SDS011;4701;51.566;6.776;2022-12-01T15:50:47;69.23;;;38.40;;
9324;SDS011;4701;51.566;6.776;2022-12-01T15:52:59;72.30;;;38.83;;
9324;SDS011;4701;51.566;6.776;2022-12-01T15:55:03;69.90;;;38.70;;
9324;SDS011;4701;51.566;6.776;2022-12-01T15:57:06;72.53;;;39.00;;
9324;SDS011;4701;51.566;6.776;2022-12-01T15:59:13;73.83;;;38.70;;
9324;SDS011;4701;51.566;6.776;2022-12-01T16:01:27;76.57;;;40.93;;
9324;SDS011;4701;51.566;6.776;2022-12-01T16:03:30;76.07;;;41.30;;
9324;SDS011;4701;51.566;6.776;2022-12-01T16:05:34;73.10;;;38.87;;
9324;SDS011;4701;51.566;6.776;2022-12-01T16:07:36;72.17;;;38.53;;
9324;SDS011;4701;51.566;6.776;2022-12-01T16:09:39;73.17;;;38.93;;
9324;SDS011;4701;51.566;6.776;2022-12-01T16:14:22;72.57;;;40.23;;
9324;SDS011;4701;51.566;6.776;2022-12-01T16:16:38;68.37;;;38.47;;
9324;SDS011;4701;51.566;6.776;2022-12-01T16:18:41;70.90;;;37.93;;
9324;SDS011;4701;51.566;6.776;2022-12-01T16:20:52;71.87;;;37.57;;
9324;SDS011;4701;51.566;6.776;2022-12-01T16:23:03;72.70;;;38.93;;
9324;SDS011;4701;51.566;6.776;2022-12-01T16:25:14;74.00;;;39.27;;
9324;SDS011;4701;51.566;6.776;2022-12-01T16:27:19;73.10;;;39.37;;
9324;SDS011;4701;51.566;6.776;2022-12-01T16:29:25;69.27;;;39.73;;
9324;SDS011;4701;51.566;6.776;2022-12-01T16:31:27;74.90;;;39.07;;
9324;SDS011;4701;51.566;6.776;2022-12-01T16:33:29;68.53;;;38.23;;
9324;SDS011;4701;51.566;6.776;2022-12-01T16:35:36;68.93;;;36.67;;
9324;SDS011;4701;51.566;6.776;2022-12-01T16:37:38;72.93;;;38.63;;
9324;SDS011;4701;51.566;6.776;2022-12-01T16:39:39;66.40;;;38.50;;
9324;SDS011;4701;51.566;6.776;2022-12-01T16:41:41;72.60;;;38.60;;
9324;SDS011;4701;51.566;6.776;2022-12-01T16:43:45;71.77;;;40.23;;
9324;SDS011;4701;51.566;6.776;2022-12-01T16:45:56;72.53;;;40.47;;
9324;SDS011;4701;51.566;6.776;2022-12-01T16:47:59;67.60;;;38.40;;
9324;SDS011;4701;51.566;6.776;2022-12-01T16:50:01;76.13;;;41.90;;
9324;SDS011;4701;51.566;6.776;2022-12-01T16:52:03;80.17;;;40.77;;
9324;SDS011;4701;51.566;6.776;2022-12-01T16:54:07;73.67;;;39.57;;
9324;SDS011;4701;51.566;6.776;2022-12-01T16:56:10;74.97;;;41.67;;
9324;SDS011;4701;51.566;6.776;2022-12-01T16:58:13;77.70;;;40.50;;
9324;SDS011;4701;51.566;6.776;2022-12-01T17:00:15;76.63;;;41.27;;
9324;SDS011;4701;51.566;6.776;2022-12-01T17:02:19;75.17;;;41.43;;
9324;SDS011;4701;51.566;6.776;2022-12-01T17:04:21;73.57;;;38.97;;
9324;SDS011;4701;51.566;6.776;2022-12-01T17:06:23;72.50;;;40.37;;
9324;SDS011;4701;51.566;6.776;2022-12-01T17:08:25;76.93;;;42.70;;
9324;SDS011;4701;51.566;6.776;2022-12-01T17:10:27;75.13;;;40.27;;
9324;SDS011;4701;51.566;6.776;2022-12-01T17:12:28;77.43;;;40.60;;
9324;SDS011;4701;51.566;6.776;2022-12-01T17:14:30;76.80;;;40.40;;
9324;SDS011;4701;51.566;6.776;2022-12-01T17:16:32;72.83;;;41.17;;
9324;SDS011;4701;51.566;6.776;2022-12-01T17:18:36;73.27;;;41.13;;
9324;SDS011;4701;51.566;6.776;2022-12-01T17:20:38;82.33;;;43.07;;
9324;SDS011;4701;51.566;6.776;2022-12-01T17:22:40;73.03;;;39.97;;
9324;SDS011;4701;51.566;6.776;2022-12-01T17:24:41;72.90;;;41.10;;
9324;SDS011;4701;51.566;6.776;2022-12-01T17:26:43;68.47;;;40.33;;
9324;SDS011;4701;51.566;6.776;2022-12-01T17:28:45;75.30;;;41.43;;
9324;SDS011;4701;51.566;6.776;2022-12-01T17:30:47;67.83;;;39.37;;
9324;SDS011;4701;51.566;6.776;2022-12-01T17:32:48;78.73;;;42.07;;
9324;SDS011;4701;51.566;6.776;2022-12-01T17:34:51;77.33;;;42.03;;
9324;SDS011;4701;51.566;6.776;2022-12-01T17:36:53;76.77;;;45.17;;
9324;SDS011;4701;51.566;6.776;2022-12-01T17:38:55;81.07;;;42.60;;
9324;SDS011;4701;51.566;6.776;2022-12-01T17:40:58;79.43;;;42.47;;
9324;SDS011;4701;51.566;6.776;2022-12-01T17:43:05;78.03;;;41.63;;
9324;SDS011;4701;51.566;6.776;2022-12-01T17:45:09;70.13;;;39.80;;
9324;SDS011;4701;51.566;6.776;2022-12-01T17:47:11;74.03;;;41.57;;
9324;SDS011;4701;51.566;6.776;2022-12-01T17:49:13;80.07;;;40.43;;
9324;SDS011;4701;51.566;6.776;2022-12-01T17:51:16;71.87;;;40.03;;
9324;SDS011;4701;51.566;6.776;2022-12-01T17:53:17;70.50;;;40.20;;
9324;SDS011;4701;51.566;6.776;2022-12-01T17:55:19;77.97;;;40.70;;
9324;SDS011;4701;51.566;6.776;2022-12-01T17:57:21;78.27;;;41.73;;
9324;SDS011;4701;51.566;6.776;2022-12-01T17:59:24;74.37;;;41.37;;
9324;SDS011;4701;51.566;6.776;2022-12-01T18:01:25;77.90;;;42.20;;
9324;SDS011;4701;51.566;6.776;2022-12-01T18:03:27;120.87;;;72.47;;
9324;SDS011;4701;51.566;6.776;2022-12-01T18:05:29;74.90;;;42.73;;
9324;SDS011;4701;51.566;6.776;2022-12-01T18:07:32;74.60;;;41.10;;
9324;SDS011;4701;51.566;6.776;2022-12-01T18:09:34;72.63;;;40.40;;
9324;SDS011;4701;51.566;6.776;2022-12-01T18:11:36;77.43;;;43.90;;
9324;SDS011;4701;51.566;6.776;2022-12-01T18:13:38;78.70;;;40.87;;
9324;SDS011;4701;51.566;6.776;2022-12-01T18:15:41;76.90;;;41.70;;
9324;SDS011;4701;51.566;6.776;2022-12-01T18:17:42;79.70;;;41.30;;
9324;SDS011;4701;51.566;6.776;2022-12-01T18:19:44;76.10;;;41.23;;
9324;SDS011;4701;51.566;6.776;2022-12-01T18:21:46;72.53;;;41.17;;
9324;SDS011;4701;51.566;6.776;2022-12-01T18:23:51;73.43;;;40.27;;
9324;SDS011;4701;51.566;6.776;2022-12-01T18:25:54;70.93;;;39.37;;
9324;SDS011;4701;51.566;6.776;2022-12-01T18:27:56;74.30;;;40.47;;
9324;SDS011;4701;51.566;6.776;2022-12-01T18:29:58;70.30;;;39.77;;
9324;SDS011;4701;51.566;6.776;2022-12-01T18:32:00;67.73;;;40.80;;
9324;SDS011;4701;51.566;6.776;2022-12-01T18:34:02;75.23;;;40.87;;
9324;SDS011;4701;51.566;6.776;2022-12-01T18:36:08;65.77;;;38.47;;
9324;SDS011;4701;51.566;6.776;2022-12-01T18:38:11;73.20;;;39.37;;
9324;SDS011;4701;51.566;6.776;2022-12-01T18:40:14;79.17;;;41.57;;
9324;SDS011;4701;51.566;6.776;2022-12-01T18:42:16;72.00;;;39.60;;
9324;SDS011;4701;51.566;6.776;2022-12-01T18:44:17;76.53;;;40.93;;
9324;SDS011;4701;51.566;6.776;2022-12-01T18:46:20;72.33;;;41.17;;
9324;SDS011;4701;51.566;6.776;2022-12-01T18:48:22;75.33;;;40.20;;
9324;SDS011;4701;51.566;6.776;2022-12-01T18:50:24;67.77;;;39.50;;
9324;SDS011;4701;51.566;6.776;2022-12-01T18:52:25;74.80;;;41.27;;
9324;SDS011;4701;51.566;6.776;2022-12-01T18:54:27;75.27;;;40.63;;